sensor_id;sensor_type;location;lat;lon;timestamp;temperature;humidity
30063;DHT22;16889;67.864;24.990;2022-11-27T00:00:52;-2.90;99.90
30063;DHT22;16889;67.864;24.990;2022-11-27T00:05:38;-2.90;99.90
30063;DHT22;16889;67.864;24.990;2022-11-27T00:10:25;-3.00;99.90
30063;DHT22;16889;67.864;24.990;2022-11-27T00:15:11;-3.00;99.90
30063;DHT22;16889;67.864;24.990;2022-11-27T00:19:57;-3.00;99.90
30063;DHT22;16889;67.864;24.990;2022-11-27T00:24:43;-3.10;99.90
30063;DHT22;16889;67.864;24.990;2022-11-27T00:29:29;-3.10;99.90
30063;DHT22;16889;67.864;24.990;2022-11-27T00:34:16;-3.10;99.90
30063;DHT22;16889;67.864;24.990;2022-11-27T00:39:03;-3.10;99.90
30063;DHT22;16889;67.864;24.990;2022-11-27T00:43:49;-3.20;99.90
30063;DHT22;16889;67.864;24.990;2022-11-27T00:48:35;-3.20;99.90
30063;DHT22;16889;67.864;24.990;2022-11-27T00:53:21;-3.30;99.90
30063;DHT22;16889;67.864;24.990;2022-11-27T00:58:07;-3.30;99.90
30063;DHT22;16889;67.864;24.990;2022-11-27T01:02:53;-3.30;99.90
30063;DHT22;16889;67.864;24.990;2022-11-27T01:07:39;-3.40;99.90
30063;DHT22;16889;67.864;24.990;2022-11-27T01:12:25;-3.40;99.90
30063;DHT22;16889;67.864;24.990;2022-11-27T01:17:11;-3.40;99.90
30063;DHT22;16889;67.864;24.990;2022-11-27T01:21:57;-3.50;99.90
30063;DHT22;16889;67.864;24.990;2022-11-27T01:26:44;-3.50;99.90
30063;DHT22;16889;67.864;24.990;2022-11-27T01:31:31;-3.50;99.90
30063;DHT22;16889;67.864;24.990;2022-11-27T01:36:17;-3.60;99.90
30063;DHT22;16889;67.864;24.990;2022-11-27T01:45:59;-3.60;99.90
30063;DHT22;16889;67.864;24.990;2022-11-27T01:50:45;-3.70;99.90
30063;DHT22;16889;67.864;24.990;2022-11-27T01:55:39;-3.60;99.90
30063;DHT22;16889;67.864;24.990;2022-11-27T02:00:28;-3.70;99.90
30063;DHT22;16889;67.864;24.990;2022-11-27T02:05:19;-3.70;99.90
30063;DHT22;16889;67.864;24.990;2022-11-27T02:10:06;-3.70;99.90
30063;DHT22;16889;67.864;24.990;2022-11-27T02:20:16;-3.60;99.90
30063;DHT22;16889;67.864;24.990;2022-11-27T02:30:00;-3.70;99.90
30063;DHT22;16889;67.864;24.990;2022-11-27T02:34:54;-3.60;99.90
30063;DHT22;16889;67.864;24.990;2022-11-27T02:40:00;-3.60;99.90
30063;DHT22;16889;67.864;24.990;2022-11-27T02:45:12;-3.50;99.90
30063;DHT22;16889;67.864;24.990;2022-11-27T02:49:59;-3.70;99.90
30063;DHT22;16889;67.864;24.990;2022-11-27T02:54:48;-3.70;99.90
30063;DHT22;16889;67.864;24.990;2022-11-27T02:59:35;-3.70;99.90
30063;DHT22;16889;67.864;24.990;2022-11-27T03:04:32;-3.70;99.90
30063;DHT22;16889;67.864;24.990;2022-11-27T03:09:20;-3.70;99.90
30063;DHT22;16889;67.864;24.990;2022-11-27T03:14:09;-3.70;99.90
30063;DHT22;16889;67.864;24.990;2022-11-27T03:23:52;-3.60;99.90
30063;DHT22;16889;67.864;24.990;2022-11-27T03:28:39;-3.50;99.90
30063;DHT22;16889;67.864;24.990;2022-11-27T03:33:25;-3.50;99.90
30063;DHT22;16889;67.864;24.990;2022-11-27T03:38:11;-3.60;99.90
30063;DHT22;16889;67.864;24.990;2022-11-27T03:43:08;-3.60;99.90
30063;DHT22;16889;67.864;24.990;2022-11-27T03:49:20;-3.60;99.90
30063;DHT22;16889;67.864;24.990;2022-11-27T03:59:03;-3.60;99.90
30063;DHT22;16889;67.864;24.990;2022-11-27T04:03:53;-3.60;99.90
30063;DHT22;16889;67.864;24.990;2022-11-27T04:08:39;-3.60;99.90
30063;DHT22;16889;67.864;24.990;2022-11-27T04:13:25;-3.60;99.90
30063;DHT22;16889;67.864;24.990;2022-11-27T04:18:11;-3.60;99.90
30063;DHT22;16889;67.864;24.990;2022-11-27T04:22:57;-3.50;99.90
30063;DHT22;16889;67.864;24.990;2022-11-27T04:27:43;-3.50;99.90
30063;DHT22;16889;67.864;24.990;2022-11-27T04:32:29;-3.50;99.90
30063;DHT22;16889;67.864;24.990;2022-11-27T04:37:15;-3.50;99.90
30063;DHT22;16889;67.864;24.990;2022-11-27T04:42:01;-3.50;99.90
30063;DHT22;16889;67.864;24.990;2022-11-27T04:46:48;-3.50;99.90
30063;DHT22;16889;67.864;24.990;2022-11-27T04:51:34;-3.40;99.90
30063;DHT22;16889;67.864;24.990;2022-11-27T04:56:20;-3.40;99.90
30063;DHT22;16889;67.864;24.990;2022-11-27T05:01:08;-3.40;99.90
30063;DHT22;16889;67.864;24.990;2022-11-27T05:05:55;-3.30;99.90
30063;DHT22;16889;67.864;24.990;2022-11-27T05:10:41;-3.30;99.90
30063;DHT22;16889;67.864;24.990;2022-11-27T05:15:27;-3.20;99.90
30063;DHT22;16889;67.864;24.990;2022-11-27T05:20:13;-3.20;99.90
30063;DHT22;16889;67.864;24.990;2022-11-27T05:25:00;-3.20;99.90
30063;DHT22;16889;67.864;24.990;2022-11-27T05:29:46;-3.20;99.90
30063;DHT22;16889;67.864;24.990;2022-11-27T05:34:32;-3.20;99.90
30063;DHT22;16889;67.864;24.990;2022-11-27T05:39:17;-3.30;99.90
30063;DHT22;16889;67.864;24.990;2022-11-27T05:44:04;-3.30;99.90
30063;DHT22;16889;67.864;24.990;2022-11-27T05:48:50;-3.40;99.90
30063;DHT22;16889;67.864;24.990;2022-11-27T05:53:36;-3.30;99.90
30063;DHT22;16889;67.864;24.990;2022-11-27T05:58:22;-3.40;99.90
30063;DHT22;16889;67.864;24.990;2022-11-27T06:03:08;-3.40;99.90
30063;DHT22;16889;67.864;24.990;2022-11-27T06:07:54;-3.30;99.90
30063;DHT22;16889;67.864;24.990;2022-11-27T06:12:40;-3.30;99.90
30063;DHT22;16889;67.864;24.990;2022-11-27T06:17:26;-3.30;99.90
30063;DHT22;16889;67.864;24.990;2022-11-27T06:22:12;-3.30;99.90
30063;DHT22;16889;67.864;24.990;2022-11-27T06:26:58;-3.30;99.90
30063;DHT22;16889;67.864;24.990;2022-11-27T06:31:44;-3.30;99.90
30063;DHT22;16889;67.864;24.990;2022-11-27T06:36:35;-3.30;99.90
30063;DHT22;16889;67.864;24.990;2022-11-27T06:41:22;-3.30;99.90
30063;DHT22;16889;67.864;24.990;2022-11-27T06:46:13;-3.20;99.90
30063;DHT22;16889;67.864;24.990;2022-11-27T06:51:01;-3.20;99.90
30063;DHT22;16889;67.864;24.990;2022-11-27T06:55:47;-3.20;99.90
30063;DHT22;16889;67.864;24.990;2022-11-27T07:00:33;-3.20;99.90
30063;DHT22;16889;67.864;24.990;2022-11-27T07:05:19;-3.20;99.90
30063;DHT22;16889;67.864;24.990;2022-11-27T07:10:06;-3.20;99.90
30063;DHT22;16889;67.864;24.990;2022-11-27T07:14:52;-3.20;99.90
30063;DHT22;16889;67.864;24.990;2022-11-27T07:19:38;-3.20;99.90
30063;DHT22;16889;67.864;24.990;2022-11-27T07:24:24;-3.10;99.90
30063;DHT22;16889;67.864;24.990;2022-11-27T07:29:10;-3.10;99.90
30063;DHT22;16889;67.864;24.990;2022-11-27T07:33:56;-3.10;99.90
30063;DHT22;16889;67.864;24.990;2022-11-27T07:38:43;-3.00;99.90
30063;DHT22;16889;67.864;24.990;2022-11-27T07:43:30;-2.90;99.90
30063;DHT22;16889;67.864;24.990;2022-11-27T07:48:16;-2.90;99.90
30063;DHT22;16889;67.864;24.990;2022-11-27T07:53:02;-2.80;99.90
30063;DHT22;16889;67.864;24.990;2022-11-27T07:57:48;-2.80;99.90
30063;DHT22;16889;67.864;24.990;2022-11-27T08:02:34;-2.70;99.90
30063;DHT22;16889;67.864;24.990;2022-11-27T08:07:28;-2.50;99.90
30063;DHT22;16889;67.864;24.990;2022-11-27T08:12:14;-2.50;99.90
30063;DHT22;16889;67.864;24.990;2022-11-27T08:17:00;-2.50;99.90
30063;DHT22;16889;67.864;24.990;2022-11-27T08:21:46;-2.50;99.90
30063;DHT22;16889;67.864;24.990;2022-11-27T08:26:32;-2.50;99.90
30063;DHT22;16889;67.864;24.990;2022-11-27T08:31:18;-2.50;99.90
30063;DHT22;16889;67.864;24.990;2022-11-27T08:36:08;-2.50;99.90
30063;DHT22;16889;67.864;24.990;2022-11-27T08:40:59;-2.60;99.90
30063;DHT22;16889;67.864;24.990;2022-11-27T08:45:45;-2.60;99.90
30063;DHT22;16889;67.864;24.990;2022-11-27T08:50:31;-2.60;99.90
30063;DHT22;16889;67.864;24.990;2022-11-27T08:55:17;-2.60;99.90
30063;DHT22;16889;67.864;24.990;2022-11-27T09:00:04;-2.60;99.90
30063;DHT22;16889;67.864;24.990;2022-11-27T09:04:50;-2.60;99.90
30063;DHT22;16889;67.864;24.990;2022-11-27T09:09:36;-2.60;99.90
30063;DHT22;16889;67.864;24.990;2022-11-27T09:14:22;-2.60;99.90
30063;DHT22;16889;67.864;24.990;2022-11-27T09:19:08;-2.50;99.90
30063;DHT22;16889;67.864;24.990;2022-11-27T09:23:55;-2.50;99.90
30063;DHT22;16889;67.864;24.990;2022-11-27T09:28:42;-2.50;99.90
30063;DHT22;16889;67.864;24.990;2022-11-27T09:33:31;-2.40;99.90
30063;DHT22;16889;67.864;24.990;2022-11-27T09:38:17;-2.40;99.90
30063;DHT22;16889;67.864;24.990;2022-11-27T09:43:04;-2.40;99.90
30063;DHT22;16889;67.864;24.990;2022-11-27T09:47:58;-2.40;99.90
30063;DHT22;16889;67.864;24.990;2022-11-27T09:52:50;-2.40;99.90
30063;DHT22;16889;67.864;24.990;2022-11-27T09:57:39;-2.30;99.90
30063;DHT22;16889;67.864;24.990;2022-11-27T10:02:33;-2.40;99.90
30063;DHT22;16889;67.864;24.990;2022-11-27T10:07:57;-2.40;99.90
30063;DHT22;16889;67.864;24.990;2022-11-27T10:28:05;-2.20;99.90
30063;DHT22;16889;67.864;24.990;2022-11-27T10:32:58;-2.20;99.90
30063;DHT22;16889;67.864;24.990;2022-11-27T10:37:46;-2.10;99.90
30063;DHT22;16889;67.864;24.990;2022-11-27T10:42:41;-2.10;99.90
30063;DHT22;16889;67.864;24.990;2022-11-27T10:47:28;-2.10;99.90
30063;DHT22;16889;67.864;24.990;2022-11-27T10:52:17;-2.00;99.90
30063;DHT22;16889;67.864;24.990;2022-11-27T10:57:27;-2.10;99.90
30063;DHT22;16889;67.864;24.990;2022-11-27T11:02:45;-2.10;99.90
30063;DHT22;16889;67.864;24.990;2022-11-27T11:07:30;-2.00;99.90
30063;DHT22;16889;67.864;24.990;2022-11-27T11:12:19;-2.00;99.90
30063;DHT22;16889;67.864;24.990;2022-11-27T11:17:26;-2.00;99.90
30063;DHT22;16889;67.864;24.990;2022-11-27T11:22:14;-2.00;99.90
30063;DHT22;16889;67.864;24.990;2022-11-27T11:27:11;-1.90;99.90
30063;DHT22;16889;67.864;24.990;2022-11-27T11:32:38;-1.90;99.90
30063;DHT22;16889;67.864;24.990;2022-11-27T11:37:21;-1.90;99.90
30063;DHT22;16889;67.864;24.990;2022-11-27T11:42:20;-1.80;99.90
30063;DHT22;16889;67.864;24.990;2022-11-27T11:47:18;-1.80;99.90
30063;DHT22;16889;67.864;24.990;2022-11-27T12:02:49;-1.70;99.90
30063;DHT22;16889;67.864;24.990;2022-11-27T12:18:55;-1.70;99.90
30063;DHT22;16889;67.864;24.990;2022-11-27T12:30:02;-1.70;99.90
30063;DHT22;16889;67.864;24.990;2022-11-27T12:40:02;-1.70;99.90
30063;DHT22;16889;67.864;24.990;2022-11-27T12:49:51;-1.70;99.90
30063;DHT22;16889;67.864;24.990;2022-11-27T13:04:49;-1.80;99.90
30063;DHT22;16889;67.864;24.990;2022-11-27T13:14:26;-1.70;99.90
30063;DHT22;16889;67.864;24.990;2022-11-27T13:19:35;-1.70;99.90
30063;DHT22;16889;67.864;24.990;2022-11-27T13:24:27;-1.70;99.90
30063;DHT22;16889;67.864;24.990;2022-11-27T13:29:41;-1.60;99.90
30063;DHT22;16889;67.864;24.990;2022-11-27T13:34:30;-1.60;99.90
30063;DHT22;16889;67.864;24.990;2022-11-27T13:44:22;-1.60;99.90
30063;DHT22;16889;67.864;24.990;2022-11-27T13:49:23;-1.50;99.90
30063;DHT22;16889;67.864;24.990;2022-11-27T13:54:12;-1.50;99.90
30063;DHT22;16889;67.864;24.990;2022-11-27T13:58:58;-1.50;99.90
30063;DHT22;16889;67.864;24.990;2022-11-27T14:03:45;-1.40;99.90
30063;DHT22;16889;67.864;24.990;2022-11-27T14:08:34;-1.40;99.90
30063;DHT22;16889;67.864;24.990;2022-11-27T14:13:21;-1.40;99.90
30063;DHT22;16889;67.864;24.990;2022-11-27T14:18:17;-1.30;99.90
30063;DHT22;16889;67.864;24.990;2022-11-27T14:23:04;-1.30;99.90
30063;DHT22;16889;67.864;24.990;2022-11-27T14:28:19;-1.30;99.90
30063;DHT22;16889;67.864;24.990;2022-11-27T14:33:19;-1.30;99.90
30063;DHT22;16889;67.864;24.990;2022-11-27T14:38:09;-1.30;99.90
30063;DHT22;16889;67.864;24.990;2022-11-27T14:43:07;-1.30;99.90
30063;DHT22;16889;67.864;24.990;2022-11-27T14:47:54;-1.20;99.90
30063;DHT22;16889;67.864;24.990;2022-11-27T14:52:46;-1.20;99.90
30063;DHT22;16889;67.864;24.990;2022-11-27T14:57:34;-1.20;99.90
30063;DHT22;16889;67.864;24.990;2022-11-27T15:02:25;-1.20;99.90
30063;DHT22;16889;67.864;24.990;2022-11-27T15:07:18;-1.20;99.90
30063;DHT22;16889;67.864;24.990;2022-11-27T15:12:14;-1.10;99.90
30063;DHT22;16889;67.864;24.990;2022-11-27T15:17:01;-1.20;99.90
30063;DHT22;16889;67.864;24.990;2022-11-27T15:21:48;-1.20;99.90
30063;DHT22;16889;67.864;24.990;2022-11-27T15:26:37;-1.20;99.90
30063;DHT22;16889;67.864;24.990;2022-11-27T15:31:35;-1.20;99.90
30063;DHT22;16889;67.864;24.990;2022-11-27T15:36:22;-1.10;99.90
30063;DHT22;16889;67.864;24.990;2022-11-27T15:41:24;-1.00;99.90
30063;DHT22;16889;67.864;24.990;2022-11-27T15:46:12;-1.00;99.90
30063;DHT22;16889;67.864;24.990;2022-11-27T15:50:58;-1.00;99.90
30063;DHT22;16889;67.864;24.990;2022-11-27T15:55:44;-0.90;99.90
30063;DHT22;16889;67.864;24.990;2022-11-27T16:00:30;-1.10;99.90
30063;DHT22;16889;67.864;24.990;2022-11-27T16:05:17;-1.10;99.90
30063;DHT22;16889;67.864;24.990;2022-11-27T16:10:04;-1.10;99.90
30063;DHT22;16889;67.864;24.990;2022-11-27T16:14:50;-1.10;99.90
30063;DHT22;16889;67.864;24.990;2022-11-27T16:19:36;-1.10;99.90
30063;DHT22;16889;67.864;24.990;2022-11-27T16:24:22;-1.10;99.90
30063;DHT22;16889;67.864;24.990;2022-11-27T16:29:08;-1.20;99.90
30063;DHT22;16889;67.864;24.990;2022-11-27T16:33:55;-1.20;99.90
30063;DHT22;16889;67.864;24.990;2022-11-27T16:38:42;-1.30;99.90
30063;DHT22;16889;67.864;24.990;2022-11-27T16:43:28;-1.30;99.90
30063;DHT22;16889;67.864;24.990;2022-11-27T16:48:18;-1.20;99.90
30063;DHT22;16889;67.864;24.990;2022-11-27T16:53:03;-1.20;99.90
30063;DHT22;16889;67.864;24.990;2022-11-27T16:57:50;-1.20;99.90
30063;DHT22;16889;67.864;24.990;2022-11-27T17:02:36;-1.20;99.90
30063;DHT22;16889;67.864;24.990;2022-11-27T17:07:22;-1.20;99.90
30063;DHT22;16889;67.864;24.990;2022-11-27T17:12:08;-1.10;99.90
30063;DHT22;16889;67.864;24.990;2022-11-27T17:16:54;-1.10;99.90
30063;DHT22;16889;67.864;24.990;2022-11-27T17:21:41;-1.10;99.90
30063;DHT22;16889;67.864;24.990;2022-11-27T17:26:28;-1.10;99.90
30063;DHT22;16889;67.864;24.990;2022-11-27T17:31:17;-1.00;99.90
30063;DHT22;16889;67.864;24.990;2022-11-27T17:36:03;-1.10;99.90
30063;DHT22;16889;67.864;24.990;2022-11-27T17:40:49;-1.00;99.90
30063;DHT22;16889;67.864;24.990;2022-11-27T17:45:40;-1.10;99.90
30063;DHT22;16889;67.864;24.990;2022-11-27T17:50:26;-1.00;99.90
30063;DHT22;16889;67.864;24.990;2022-11-27T17:55:12;-1.00;99.90
30063;DHT22;16889;67.864;24.990;2022-11-27T17:59:58;-1.10;99.90
30063;DHT22;16889;67.864;24.990;2022-11-27T18:04:44;-1.10;99.90
30063;DHT22;16889;67.864;24.990;2022-11-27T18:09:32;-1.00;99.90
30063;DHT22;16889;67.864;24.990;2022-11-27T18:14:18;-1.00;99.90
30063;DHT22;16889;67.864;24.990;2022-11-27T18:19:06;-0.80;99.90
30063;DHT22;16889;67.864;24.990;2022-11-27T18:23:53;-0.90;99.90
30063;DHT22;16889;67.864;24.990;2022-11-27T18:28:40;-0.80;99.90
30063;DHT22;16889;67.864;24.990;2022-11-27T18:33:26;-0.90;99.90
30063;DHT22;16889;67.864;24.990;2022-11-27T18:38:12;-0.90;99.90
30063;DHT22;16889;67.864;24.990;2022-11-27T18:42:58;-0.90;99.90
30063;DHT22;16889;67.864;24.990;2022-11-27T18:47:44;-0.90;99.90
30063;DHT22;16889;67.864;24.990;2022-11-27T18:52:30;-0.90;99.90
30063;DHT22;16889;67.864;24.990;2022-11-27T18:57:16;-0.90;99.90
30063;DHT22;16889;67.864;24.990;2022-11-27T19:02:04;-0.80;99.90
30063;DHT22;16889;67.864;24.990;2022-11-27T19:06:50;-0.80;99.90
30063;DHT22;16889;67.864;24.990;2022-11-27T19:11:36;-0.80;99.90
30063;DHT22;16889;67.864;24.990;2022-11-27T19:16:27;-0.70;99.90
30063;DHT22;16889;67.864;24.990;2022-11-27T19:21:17;-0.60;99.90
30063;DHT22;16889;67.864;24.990;2022-11-27T19:26:05;-0.50;99.90
30063;DHT22;16889;67.864;24.990;2022-11-27T19:30:52;-0.40;99.90
30063;DHT22;16889;67.864;24.990;2022-11-27T19:35:38;-0.40;99.90
30063;DHT22;16889;67.864;24.990;2022-11-27T19:40:25;-0.40;99.90
30063;DHT22;16889;67.864;24.990;2022-11-27T19:45:12;-0.50;99.90
30063;DHT22;16889;67.864;24.990;2022-11-27T19:49:58;-0.50;99.90
30063;DHT22;16889;67.864;24.990;2022-11-27T19:54:44;-0.40;99.90
30063;DHT22;16889;67.864;24.990;2022-11-27T19:59:30;-0.40;99.90
30063;DHT22;16889;67.864;24.990;2022-11-27T20:04:16;-0.50;99.90
30063;DHT22;16889;67.864;24.990;2022-11-27T20:09:04;-0.40;99.90
30063;DHT22;16889;67.864;24.990;2022-11-27T20:13:50;-0.40;99.90
30063;DHT22;16889;67.864;24.990;2022-11-27T20:18:37;-0.50;99.90
30063;DHT22;16889;67.864;24.990;2022-11-27T20:23:23;-0.60;99.90
30063;DHT22;16889;67.864;24.990;2022-11-27T20:28:09;-0.50;99.90
30063;DHT22;16889;67.864;24.990;2022-11-27T20:32:55;-0.60;99.90
30063;DHT22;16889;67.864;24.990;2022-11-27T20:37:41;-0.50;99.90
30063;DHT22;16889;67.864;24.990;2022-11-27T20:42:27;-0.60;99.90
30063;DHT22;16889;67.864;24.990;2022-11-27T20:47:13;-0.60;99.90
30063;DHT22;16889;67.864;24.990;2022-11-27T20:51:59;-0.60;99.90
30063;DHT22;16889;67.864;24.990;2022-11-27T20:56:51;-0.70;99.90
30063;DHT22;16889;67.864;24.990;2022-11-27T21:01:38;-0.60;99.90
30063;DHT22;16889;67.864;24.990;2022-11-27T21:06:28;-0.70;99.90
30063;DHT22;16889;67.864;24.990;2022-11-27T21:11:21;-0.70;99.90
30063;DHT22;16889;67.864;24.990;2022-11-27T21:16:11;-0.80;99.90
30063;DHT22;16889;67.864;24.990;2022-11-27T21:21:05;-0.80;99.90
30063;DHT22;16889;67.864;24.990;2022-11-27T21:25:52;-0.80;99.90
30063;DHT22;16889;67.864;24.990;2022-11-27T21:30:38;-0.80;99.90
30063;DHT22;16889;67.864;24.990;2022-11-27T21:35:24;-0.90;99.90
30063;DHT22;16889;67.864;24.990;2022-11-27T21:40:11;-0.80;99.90
30063;DHT22;16889;67.864;24.990;2022-11-27T21:44:58;-0.80;99.90
30063;DHT22;16889;67.864;24.990;2022-11-27T21:49:44;-0.70;99.90
30063;DHT22;16889;67.864;24.990;2022-11-27T21:54:30;-0.80;99.90
30063;DHT22;16889;67.864;24.990;2022-11-27T21:59:16;-0.70;99.90
30063;DHT22;16889;67.864;24.990;2022-11-27T22:04:03;-0.70;99.90
30063;DHT22;16889;67.864;24.990;2022-11-27T22:08:50;-0.90;99.90
30063;DHT22;16889;67.864;24.990;2022-11-27T22:13:36;-0.90;99.90
30063;DHT22;16889;67.864;24.990;2022-11-27T22:18:23;-0.80;99.90
30063;DHT22;16889;67.864;24.990;2022-11-27T22:23:09;-0.90;99.90
30063;DHT22;16889;67.864;24.990;2022-11-27T22:27:55;-0.90;99.90
30063;DHT22;16889;67.864;24.990;2022-11-27T22:32:41;-1.10;99.90
30063;DHT22;16889;67.864;24.990;2022-11-27T22:37:27;-1.10;99.90
30063;DHT22;16889;67.864;24.990;2022-11-27T22:42:13;-1.10;99.90
30063;DHT22;16889;67.864;24.990;2022-11-27T22:46:59;-1.10;99.90
30063;DHT22;16889;67.864;24.990;2022-11-27T22:51:45;-1.10;99.90
30063;DHT22;16889;67.864;24.990;2022-11-27T22:56:32;-1.10;99.90
30063;DHT22;16889;67.864;24.990;2022-11-27T23:01:23;-1.10;99.90
30063;DHT22;16889;67.864;24.990;2022-11-27T23:06:14;-1.10;99.90
30063;DHT22;16889;67.864;24.990;2022-11-27T23:11:04;-1.10;99.90
30063;DHT22;16889;67.864;24.990;2022-11-27T23:15:50;-1.10;99.90
30063;DHT22;16889;67.864;24.990;2022-11-27T23:20:42;-0.90;99.90
30063;DHT22;16889;67.864;24.990;2022-11-27T23:25:29;-0.90;99.90
30063;DHT22;16889;67.864;24.990;2022-11-27T23:30:16;-1.00;99.90
30063;DHT22;16889;67.864;24.990;2022-11-27T23:35:02;-1.10;99.90
30063;DHT22;16889;67.864;24.990;2022-11-27T23:39:48;-1.10;99.90
30063;DHT22;16889;67.864;24.990;2022-11-27T23:44:34;-1.20;99.90
30063;DHT22;16889;67.864;24.990;2022-11-27T23:49:20;-1.10;99.90
30063;DHT22;16889;67.864;24.990;2022-11-27T23:54:09;-1.10;99.90
30063;DHT22;16889;67.864;24.990;2022-11-27T23:58:56;-1.10;99.90
